createdAt,value
2018-05-17T00:01:09.011Z,6.50
2018-05-17T00:03:36.503Z,6.60
2018-05-17T00:06:05.535Z,7.10
2018-05-17T00:08:35.030Z,6.90
2018-05-17T00:11:02.524Z,6.20
2018-05-17T00:13:30.043Z,6.30
2018-05-17T00:15:57.558Z,7.20
2018-05-17T00:18:25.053Z,7.00
2018-05-17T00:20:53.344Z,7.13
2018-05-17T00:23:20.837Z,6.40
2018-05-17T00:25:50.314Z,5.70
2018-05-17T00:28:17.819Z,5.70
2018-05-17T00:30:48.110Z,6.60
2018-05-17T00:33:15.610Z,7.00
2018-05-17T00:35:43.914Z,7.00
2018-05-17T00:38:11.419Z,6.33
2018-05-17T00:40:39.902Z,6.70
2018-05-17T00:43:07.423Z,5.67
2018-05-17T00:45:34.919Z,5.43
2018-05-17T00:48:02.459Z,5.40
2018-05-17T00:50:29.976Z,6.40
2018-05-17T00:53:09.352Z,5.70
2018-05-17T00:55:36.847Z,5.90
2018-05-17T00:58:05.167Z,5.10
2018-05-17T01:00:32.687Z,6.30
2018-05-17T01:03:00.987Z,5.97
2018-05-17T01:05:28.510Z,4.80
2018-05-17T01:07:57.720Z,5.57
2018-05-17T01:10:25.247Z,5.63
2018-05-17T01:12:52.764Z,5.87
2018-05-17T01:15:20.272Z,5.70
2018-05-17T01:17:47.789Z,5.90
2018-05-17T01:20:15.290Z,4.97
2018-05-17T01:22:43.579Z,5.87
2018-05-17T01:25:11.843Z,5.13
2018-05-17T01:27:40.124Z,5.50
2018-05-17T01:30:08.379Z,6.10
2018-05-17T01:32:35.883Z,5.30
2018-05-17T01:35:03.427Z,5.90
2018-05-17T01:37:42.903Z,5.03
2018-05-17T02:00:26.484Z,5.80
2018-05-17T02:02:54.751Z,6.40
2018-05-17T02:05:22.266Z,5.83
2018-05-17T02:07:49.761Z,5.40
2018-05-17T02:10:17.280Z,4.90
2018-05-17T02:12:44.780Z,5.20
2018-05-17T02:15:12.279Z,5.17
2018-05-17T02:17:39.800Z,5.07
2018-05-17T02:20:07.293Z,5.10
2018-05-17T02:22:34.808Z,4.23
2018-05-17T02:25:02.300Z,4.80
2018-05-17T02:27:31.817Z,5.40
2018-05-17T02:29:59.327Z,5.50
2018-05-17T02:32:26.819Z,5.03
2018-05-17T02:34:57.063Z,5.97
2018-05-17T02:37:24.564Z,5.10
2018-05-17T02:39:52.092Z,5.00
2018-05-17T02:42:19.593Z,4.83
2018-05-17T02:44:47.888Z,5.23
2018-05-17T02:47:16.143Z,5.07
2018-05-17T02:49:44.435Z,4.67
2018-05-17T02:52:11.952Z,4.70
2018-05-17T02:54:39.501Z,4.90
2018-05-17T02:57:07.971Z,5.43
2018-05-17T02:59:35.472Z,5.13
2018-05-17T03:02:03.755Z,5.20
2018-05-17T03:04:32.018Z,6.23
2018-05-17T03:07:00.312Z,5.47
2018-05-17T03:09:28.583Z,5.60
2018-05-17T03:11:56.878Z,5.67
2018-05-17T03:14:24.379Z,5.10
2018-05-17T03:16:51.892Z,6.07
2018-05-17T03:19:19.402Z,6.10
2018-05-17T03:21:46.890Z,5.90
2018-05-17T03:24:14.416Z,5.33
2018-05-17T03:26:41.914Z,5.37
2018-05-17T03:29:09.433Z,5.80
2018-05-17T03:31:36.945Z,5.83
2018-05-17T03:34:04.486Z,6.10
2018-05-17T03:36:32.003Z,6.33
2018-05-17T03:38:59.502Z,5.60
2018-05-17T03:41:29.008Z,6.20
2018-05-17T03:43:56.516Z,7.00
2018-05-17T03:46:24.029Z,5.97
2018-05-17T03:48:51.536Z,5.80
2018-05-17T03:51:19.052Z,7.57
2018-05-17T03:53:46.554Z,6.27
2018-05-17T03:56:14.084Z,6.37
2018-05-17T03:58:41.587Z,6.90
2018-05-17T04:01:21.924Z,6.23
2018-05-17T04:04:01.212Z,5.77
2018-05-17T04:06:34.667Z,6.70
2018-05-17T04:09:02.932Z,6.50
2018-05-17T04:11:31.223Z,6.53
2018-05-17T04:13:59.588Z,6.13
2018-05-17T04:16:27.002Z,5.20
2018-05-17T04:18:54.523Z,6.23
2018-05-17T04:21:22.026Z,5.17
2018-05-17T04:23:49.548Z,5.80
2018-05-17T04:26:17.042Z,5.57
2018-05-17T04:28:44.555Z,6.10
2018-05-17T04:31:12.051Z,6.23
2018-05-17T04:33:39.571Z,6.13
2018-05-17T04:36:07.073Z,6.40
2018-05-17T04:38:34.583Z,5.90
2018-05-17T04:41:02.102Z,4.93
2018-05-17T04:43:32.068Z,6.20
2018-05-17T04:45:59.590Z,5.90
2018-05-17T04:48:27.871Z,5.07
2018-05-17T04:50:57.401Z,6.50
2018-05-17T04:53:24.895Z,6.57
2018-05-17T04:55:52.415Z,6.10
2018-05-17T04:58:19.915Z,5.60
2018-05-17T05:00:47.420Z,6.10
2018-05-17T05:03:15.051Z,5.73
2018-05-17T05:05:43.320Z,5.90
2018-05-17T05:08:11.612Z,5.80
2018-05-17T05:10:39.896Z,5.50
2018-05-17T05:13:07.419Z,5.20
2018-05-17T05:15:34.924Z,5.17
2018-05-17T05:18:02.425Z,4.80
2018-05-17T05:20:29.948Z,5.27
2018-05-17T05:22:58.420Z,5.50
2018-05-17T05:25:26.045Z,5.27
2018-05-17T05:27:54.308Z,4.80
2018-05-17T05:30:23.344Z,6.20
2018-05-17T05:32:50.842Z,5.63
2018-05-17T05:35:18.351Z,5.43
2018-05-17T05:37:47.864Z,5.77
2018-05-17T05:40:15.363Z,5.77
2018-05-17T05:42:44.387Z,5.97
2018-05-17T05:45:12.654Z,5.90
2018-05-17T05:47:40.956Z,5.37
2018-05-17T05:50:08.603Z,5.03
2018-05-17T05:52:36.875Z,5.47
2018-05-17T05:55:05.180Z,5.07
2018-05-17T05:57:32.702Z,5.00
2018-05-17T06:00:01.000Z,4.87
2018-05-17T06:02:29.518Z,4.67
2018-05-17T06:04:58.072Z,4.70
2018-05-17T06:07:25.852Z,5.00
2018-05-17T06:09:53.597Z,5.40
2018-05-17T06:12:21.463Z,4.90
2018-05-17T06:14:49.328Z,5.27
2018-05-17T06:17:17.232Z,4.70
2018-05-17T06:19:45.384Z,4.67
2018-05-17T06:22:12.961Z,4.40
2018-05-17T06:24:40.892Z,4.40
2018-05-17T06:27:08.757Z,4.53
2018-05-17T06:29:36.576Z,4.20
2018-05-17T06:32:05.173Z,6.90
2018-05-17T06:34:32.748Z,16.17
2018-05-17T06:37:00.281Z,13.50
2018-05-17T06:39:29.571Z,16.23
2018-05-17T06:41:57.854Z,16.70
2018-05-17T06:44:26.157Z,16.67
2018-05-17T06:46:53.681Z,15.30
2018-05-17T06:49:21.985Z,17.73
2018-05-17T06:51:51.557Z,16.43
2018-05-17T06:54:19.041Z,16.33
2018-05-17T06:56:46.574Z,16.57
2018-05-17T06:59:14.080Z,16.97
2018-05-17T07:01:41.607Z,17.30
2018-05-17T07:04:09.897Z,16.63
2018-05-17T07:06:37.439Z,17.13
2018-05-17T07:09:05.710Z,16.50
2018-05-17T07:11:34.014Z,15.43
2018-05-17T07:14:01.537Z,17.07
2018-05-17T07:16:29.827Z,18.73
2018-05-17T07:18:58.133Z,16.73
2018-05-17T07:21:25.650Z,16.87
2018-05-17T07:23:55.915Z,19.23
2018-05-17T07:26:23.432Z,19.23
2018-05-17T07:28:51.723Z,19.87
2018-05-17T07:31:19.336Z,20.30
2018-05-17T07:33:47.540Z,21.90
2018-05-17T07:36:15.845Z,23.50
2018-05-17T07:38:43.377Z,25.53
2018-05-17T07:41:11.686Z,23.37
2018-05-17T07:43:39.196Z,26.57
2018-05-17T07:46:06.716Z,28.67
2018-05-17T07:48:34.240Z,29.50
2018-05-17T07:51:01.782Z,29.20
2018-05-17T07:53:30.055Z,29.40
2018-05-17T07:55:58.331Z,33.73
2018-05-17T07:58:26.643Z,32.37
2018-05-17T08:00:55.103Z,36.93
2018-05-17T08:03:22.641Z,35.33
2018-05-17T08:05:50.922Z,33.57
2018-05-17T08:08:20.449Z,31.97
2018-05-17T08:10:47.955Z,34.40
2018-05-17T08:13:15.484Z,36.90
2018-05-17T08:15:42.980Z,37.53
2018-05-17T08:18:11.266Z,35.90
2018-05-17T08:20:39.564Z,36.80
2018-05-17T08:23:07.068Z,38.07
2018-05-17T08:25:36.548Z,42.30
2018-05-17T08:28:04.059Z,38.93
2018-05-17T08:30:32.356Z,37.17
2018-05-17T08:32:59.870Z,38.20
2018-05-17T08:35:28.916Z,37.80
2018-05-17T08:37:56.431Z,37.93
2018-05-17T08:40:24.732Z,35.77
2018-05-17T08:42:52.260Z,36.43
2018-05-17T08:45:20.563Z,34.30
2018-05-17T08:47:49.035Z,33.70
2018-05-17T08:50:18.267Z,33.80
2018-05-17T08:52:45.800Z,32.07
2018-05-17T08:55:13.343Z,35.67
2018-05-17T08:57:41.638Z,31.17
2018-05-17T09:00:09.151Z,33.03
2018-05-17T09:02:36.689Z,29.37
2018-05-17T09:05:04.217Z,32.53
2018-05-17T09:07:31.760Z,32.03
2018-05-17T09:09:59.268Z,29.00
2018-05-17T09:12:26.775Z,26.17
2018-05-17T09:14:54.315Z,28.90
2018-05-17T09:17:22.601Z,26.37
2018-05-17T09:19:50.137Z,27.33
2018-05-17T09:22:18.423Z,24.63
2018-05-17T09:24:48.655Z,26.23
2018-05-17T09:27:16.160Z,23.10
2018-05-17T09:29:43.675Z,23.10
2018-05-17T09:32:11.204Z,23.90
2018-05-17T09:34:39.509Z,23.03
2018-05-17T09:37:07.023Z,22.80
2018-05-17T09:39:34.539Z,22.10
2018-05-17T09:42:02.076Z,23.10
2018-05-17T09:44:29.581Z,22.77
2018-05-17T09:46:57.126Z,18.50
2018-05-17T09:49:24.642Z,20.87
2018-05-17T09:51:53.909Z,21.17
2018-05-17T09:54:21.432Z,18.80
2018-05-17T09:56:48.968Z,19.63
2018-05-17T09:59:16.479Z,17.27
2018-05-17T10:01:44.011Z,17.83
2018-05-17T10:04:11.528Z,17.97
2018-05-17T10:06:39.796Z,18.87
2018-05-17T10:09:08.085Z,19.63
2018-05-17T10:11:36.788Z,16.87
2018-05-17T10:14:04.315Z,14.80
2018-05-17T10:16:32.600Z,16.80
2018-05-17T10:19:00.121Z,16.63
2018-05-17T10:21:27.628Z,16.30
2018-05-17T10:23:55.152Z,16.70
2018-05-17T10:26:23.435Z,15.00
2018-05-17T10:28:51.709Z,14.37
2018-05-17T10:31:20.011Z,16.87
2018-05-17T10:33:47.525Z,16.60
2018-05-17T10:36:17.640Z,14.50
2018-05-17T10:38:45.157Z,13.20
2018-05-17T10:41:12.708Z,15.57
2018-05-17T10:43:40.212Z,15.67
2018-05-17T10:46:07.744Z,12.00
2018-05-17T10:48:35.252Z,12.33
2018-05-17T10:51:03.548Z,13.37
2018-05-17T10:53:31.047Z,15.63
2018-05-17T10:55:58.572Z,13.30
2018-05-17T10:58:26.121Z,13.57
2018-05-17T11:00:54.578Z,14.00
2018-05-17T11:03:22.869Z,14.00
2018-05-17T11:05:50.384Z,12.60
2018-05-17T11:08:17.916Z,11.87
2018-05-17T11:10:45.432Z,12.10
2018-05-17T11:13:12.996Z,12.60
2018-05-17T11:15:41.490Z,13.43
2018-05-17T11:18:09.020Z,12.57
2018-05-17T11:20:37.298Z,13.50
2018-05-17T11:23:05.580Z,12.47
2018-05-17T11:25:33.119Z,11.60
2018-05-17T11:28:01.407Z,12.20
2018-05-17T11:30:28.961Z,12.07
2018-05-17T11:32:56.503Z,11.37
2018-05-17T11:35:24.814Z,11.40
2018-05-17T11:37:52.316Z,10.80
2018-05-17T11:40:21.355Z,10.73
2018-05-17T11:42:48.881Z,10.40
2018-05-17T11:45:18.847Z,10.47
2018-05-17T11:47:46.374Z,11.57
2018-05-17T11:50:14.658Z,11.40
2018-05-17T11:52:42.186Z,10.43
2018-05-17T11:55:09.690Z,10.50
2018-05-17T11:57:39.190Z,9.87
2018-05-17T12:00:06.697Z,10.90
2018-05-17T12:02:35.745Z,11.27
2018-05-17T12:05:03.263Z,9.30
2018-05-17T12:07:31.608Z,11.03
2018-05-17T12:10:00.038Z,8.73
2018-05-17T12:12:27.577Z,10.13
2018-05-17T12:14:55.874Z,9.00
2018-05-17T12:17:23.383Z,9.20
2018-05-17T12:19:50.936Z,9.20
2018-05-17T12:22:18.452Z,8.00
2018-05-17T12:24:47.946Z,9.00
2018-05-17T12:27:15.450Z,9.60
2018-05-17T12:29:42.952Z,9.43
2018-05-17T12:32:11.244Z,9.90
2018-05-17T12:34:38.754Z,9.10
2018-05-17T12:37:08.271Z,9.30
2018-05-17T12:39:35.747Z,8.57
2018-05-17T12:42:04.033Z,8.17
2018-05-17T12:44:32.510Z,8.40
2018-05-17T12:47:00.048Z,7.73
2018-05-17T12:49:28.319Z,8.17
2018-05-17T12:51:56.583Z,7.80
2018-05-17T12:54:24.111Z,9.13
2018-05-17T12:56:51.639Z,9.17
2018-05-17T12:59:19.169Z,7.70
2018-05-17T13:01:47.456Z,6.90
2018-05-17T13:04:15.755Z,8.67
2018-05-17T13:06:43.263Z,8.17
2018-05-17T13:09:10.795Z,7.27
2018-05-17T13:11:38.389Z,8.60
2018-05-17T13:14:06.806Z,7.80
2018-05-17T13:16:34.327Z,6.37
2018-05-17T13:19:02.596Z,7.77
2018-05-17T13:21:32.060Z,7.43
2018-05-17T13:23:59.577Z,6.67
2018-05-17T13:26:27.872Z,7.80
2018-05-17T13:28:56.344Z,6.87
2018-05-17T13:31:23.882Z,8.00
2018-05-17T13:33:52.151Z,7.33
2018-05-17T13:36:20.420Z,7.57
2018-05-17T13:38:48.716Z,7.27
2018-05-17T13:41:16.224Z,7.13
2018-05-17T13:43:43.761Z,7.30
2018-05-17T13:46:11.282Z,6.50
2018-05-17T13:48:39.599Z,6.00
2018-05-17T13:51:07.103Z,6.63
2018-05-17T13:53:35.400Z,7.17
2018-05-17T13:56:02.932Z,8.73
2018-05-17T13:58:30.422Z,6.63
2018-05-17T14:00:57.953Z,6.20
2018-05-17T14:03:26.271Z,6.87
2018-05-17T14:05:53.772Z,6.37
2018-05-17T14:08:21.280Z,6.23
2018-05-17T14:10:48.798Z,6.33
2018-05-17T14:13:17.058Z,5.90
2018-05-17T14:15:44.583Z,6.20
2018-05-17T14:18:12.109Z,6.50
2018-05-17T14:20:40.401Z,7.47
2018-05-17T14:23:08.965Z,6.10
2018-05-17T14:25:36.424Z,6.83
2018-05-17T14:28:03.927Z,6.67
2018-05-17T14:30:31.460Z,6.47
2018-05-17T14:32:58.985Z,6.93
2018-05-17T14:35:27.252Z,6.73
2018-05-17T14:37:55.554Z,6.20
2018-05-17T14:40:23.065Z,5.80
2018-05-17T14:42:51.375Z,5.73
2018-05-17T14:45:18.875Z,5.97
2018-05-17T14:47:47.556Z,6.20
2018-05-17T14:50:15.065Z,5.63
2018-05-17T14:52:43.335Z,5.97
2018-05-17T14:55:11.625Z,6.67
2018-05-17T14:57:39.147Z,5.33
2018-05-17T15:00:07.461Z,5.53
2018-05-17T15:02:34.985Z,5.00
2018-05-17T15:05:02.523Z,5.80
2018-05-17T15:07:30.061Z,6.00
2018-05-17T15:09:57.589Z,5.33
2018-05-17T15:12:26.066Z,5.23
2018-05-17T15:14:53.592Z,5.10
2018-05-17T15:17:21.101Z,5.83
2018-05-17T15:19:48.608Z,5.17
2018-05-17T15:22:16.134Z,5.73
2018-05-17T15:24:43.640Z,5.50
2018-05-17T15:27:11.197Z,5.83
2018-05-17T15:29:39.541Z,5.40
2018-05-17T15:32:07.020Z,5.30
2018-05-17T15:34:35.305Z,5.90
2018-05-17T15:37:03.600Z,6.20
2018-05-17T15:39:31.107Z,5.37
2018-05-17T15:41:58.623Z,5.20
2018-05-17T15:44:26.138Z,5.53
2018-05-17T15:46:54.415Z,5.10
2018-05-17T15:49:21.939Z,5.13
2018-05-17T15:51:49.439Z,4.97
2018-05-17T15:54:17.720Z,4.47
2018-05-17T15:56:46.023Z,4.80
2018-05-17T15:59:13.547Z,5.23
2018-05-17T16:01:41.846Z,4.40
2018-05-17T16:04:09.349Z,5.20
2018-05-17T16:06:36.952Z,5.60
2018-05-17T16:09:05.222Z,4.87
2018-05-17T16:11:32.740Z,4.80
2018-05-17T16:14:00.237Z,5.17
2018-05-17T16:16:27.760Z,5.27
2018-05-17T16:18:55.263Z,4.43
2018-05-17T16:21:22.789Z,4.60
2018-05-17T16:23:51.053Z,4.93
2018-05-17T16:26:18.558Z,4.33
2018-05-17T16:28:46.090Z,4.50
2018-05-17T16:31:14.355Z,5.00
2018-05-17T16:33:42.642Z,4.77
2018-05-17T16:36:10.197Z,4.80
2018-05-17T16:38:38.493Z,4.30
2018-05-17T16:41:06.013Z,4.00
2018-05-17T16:43:34.276Z,5.10
2018-05-17T16:46:01.815Z,4.53
2018-05-17T16:48:29.363Z,4.43
2018-05-17T16:50:58.824Z,4.40
2018-05-17T16:53:27.092Z,4.80
2018-05-17T16:55:55.436Z,4.70
2018-05-17T16:58:22.930Z,4.50
2018-05-17T17:00:51.231Z,5.73
2018-05-17T17:03:18.736Z,5.27
2018-05-17T17:05:48.238Z,5.70
2018-05-17T17:08:15.735Z,4.73
2018-05-17T17:10:43.257Z,4.70
2018-05-17T17:13:10.783Z,4.17
2018-05-17T17:15:38.300Z,4.50
2018-05-17T17:18:05.829Z,4.70
2018-05-17T17:20:34.100Z,5.20
2018-05-17T17:23:01.640Z,5.63
2018-05-17T17:25:29.156Z,5.40
2018-05-17T17:27:56.660Z,4.60
2018-05-17T17:30:24.196Z,3.90
2018-05-17T17:32:51.687Z,4.57
2018-05-17T17:35:19.207Z,4.20
2018-05-17T17:37:46.724Z,4.20
2018-05-17T17:40:15.019Z,4.60
2018-05-17T17:42:42.520Z,7.87
2018-05-17T17:45:10.059Z,6.33
2018-05-17T17:47:37.572Z,6.23
2018-05-17T17:50:05.859Z,8.57
2018-05-17T17:52:33.381Z,9.70
2018-05-17T17:55:00.993Z,7.70
2018-05-17T17:57:28.531Z,10.60
2018-05-17T17:59:56.067Z,9.00
2018-05-17T18:02:24.357Z,8.47
2018-05-17T18:04:52.631Z,8.07
2018-05-17T18:07:20.903Z,7.80
2018-05-17T18:09:49.199Z,7.23
2018-05-17T18:12:16.743Z,9.63
2018-05-17T18:14:45.041Z,8.10
2018-05-17T18:17:12.543Z,7.33
2018-05-17T18:19:41.767Z,9.17
2018-05-17T18:22:10.092Z,8.87
2018-05-17T18:24:37.605Z,8.93
2018-05-17T18:27:05.263Z,8.10
2018-05-17T18:29:33.546Z,9.20
2018-05-17T18:32:01.067Z,9.00
2018-05-17T18:34:28.559Z,8.77
2018-05-17T18:36:56.142Z,8.70
2018-05-17T18:39:23.685Z,8.50
2018-05-17T18:41:54.648Z,8.90
2018-05-17T18:44:22.144Z,7.80
2018-05-17T18:46:49.639Z,8.20
2018-05-17T18:49:17.416Z,9.47
2018-05-17T18:51:45.084Z,10.10
2018-05-17T18:54:12.880Z,7.70
2018-05-17T18:56:40.647Z,8.50
2018-05-17T18:59:09.288Z,8.33
2018-05-17T19:01:38.214Z,7.27
2018-05-17T19:04:06.149Z,8.50
2018-05-17T19:06:35.562Z,8.50
2018-05-17T19:09:03.512Z,7.50
2018-05-17T19:11:31.082Z,8.43
2018-05-17T19:13:58.935Z,7.97
2018-05-17T19:16:26.632Z,8.47
2018-05-17T19:18:54.356Z,8.33
2018-05-17T19:21:22.222Z,9.50
2018-05-17T19:23:49.950Z,9.60
2018-05-17T19:26:18.238Z,7.63
2018-05-17T19:28:45.826Z,7.70
2018-05-17T19:31:13.321Z,7.90
2018-05-17T19:33:40.851Z,7.57
2018-05-17T19:36:08.367Z,7.20
2018-05-17T19:38:36.636Z,8.80
2018-05-17T19:41:04.936Z,8.63
2018-05-17T19:43:32.454Z,9.00
2018-05-17T19:46:00.735Z,8.17
2018-05-17T19:48:28.996Z,7.93
2018-05-17T19:50:56.504Z,9.23
2018-05-17T19:53:24.025Z,9.40
2018-05-17T19:55:52.318Z,9.27
2018-05-17T19:58:19.867Z,10.20
2018-05-17T20:00:48.136Z,8.73
2018-05-17T20:03:16.407Z,8.50
2018-05-17T20:05:44.701Z,8.93
2018-05-17T20:08:12.203Z,7.77
2018-05-17T20:10:39.725Z,8.57
2018-05-17T20:13:07.395Z,9.13
2018-05-17T20:15:34.836Z,9.90
2018-05-17T20:18:02.397Z,8.13
2018-05-17T20:20:30.863Z,7.70
2018-05-17T20:22:59.156Z,8.50
2018-05-17T20:25:26.655Z,8.57
2018-05-17T20:27:54.213Z,8.30
2018-05-17T20:30:23.702Z,9.37
2018-05-17T20:32:51.208Z,9.60
2018-05-17T20:35:19.496Z,7.80
2018-05-17T20:37:47.980Z,8.10
2018-05-17T20:40:15.528Z,8.70
2018-05-17T20:42:43.055Z,8.70
2018-05-17T20:45:11.355Z,7.50
2018-05-17T20:47:40.583Z,8.23
2018-05-17T20:50:08.083Z,8.80
2018-05-17T20:52:35.608Z,8.67
2018-05-17T20:55:03.113Z,8.03
2018-05-17T20:57:31.411Z,7.77
2018-05-17T20:59:58.937Z,7.83
2018-05-17T21:02:27.231Z,7.80
2018-05-17T21:04:55.530Z,8.53
2018-05-17T21:07:23.062Z,8.20
2018-05-17T21:09:51.339Z,7.40
2018-05-17T21:12:18.875Z,7.97
2018-05-17T21:14:47.183Z,8.40
2018-05-17T21:17:14.700Z,8.30
2018-05-17T21:19:43.150Z,8.47
2018-05-17T21:22:11.621Z,7.70
2018-05-17T21:24:39.167Z,7.30
2018-05-17T21:27:06.706Z,7.23
2018-05-17T21:29:34.979Z,8.13
2018-05-17T21:32:02.488Z,8.30
2018-05-17T21:34:30.008Z,7.97
2018-05-17T21:36:59.488Z,8.77
2018-05-17T21:39:33.490Z,9.70
2018-05-17T21:42:01.940Z,9.30
2018-05-17T21:44:29.447Z,7.73
2018-05-17T21:46:57.741Z,9.17
2018-05-17T21:49:26.183Z,9.63
2018-05-17T21:51:54.472Z,9.50
2018-05-17T21:54:22.759Z,8.00
2018-05-17T21:56:50.276Z,7.30
2018-05-17T21:59:17.798Z,8.77
2018-05-17T22:01:45.296Z,8.07
2018-05-17T22:04:13.587Z,8.67
2018-05-17T22:06:41.888Z,8.30
2018-05-17T22:09:09.412Z,8.70
2018-05-17T22:11:36.921Z,7.47
2018-05-17T22:14:05.416Z,8.03
2018-05-17T22:16:32.931Z,9.40
2018-05-17T22:19:00.447Z,7.77
2018-05-17T22:21:27.981Z,8.13
2018-05-17T22:23:55.499Z,8.50
2018-05-17T22:26:23.023Z,8.00
2018-05-17T22:28:51.324Z,7.80
2018-05-17T22:31:19.617Z,7.47
2018-05-17T22:33:47.127Z,7.37
2018-05-17T22:36:14.661Z,7.30
2018-05-17T22:38:42.221Z,8.80
2018-05-17T22:41:09.747Z,6.80
2018-05-17T22:43:39.235Z,7.40
2018-05-17T22:46:06.804Z,8.03
2018-05-17T22:48:34.331Z,7.63
2018-05-17T22:51:02.797Z,8.17
2018-05-17T22:53:30.349Z,6.90
2018-05-17T22:55:57.855Z,8.37
2018-05-17T22:58:31.455Z,7.00
2018-05-17T23:00:59.055Z,7.47
2018-05-17T23:03:26.611Z,7.47
2018-05-17T23:05:54.107Z,6.90
2018-05-17T23:08:22.436Z,7.73
2018-05-17T23:10:49.962Z,7.50
2018-05-17T23:13:17.463Z,7.30
2018-05-17T23:15:44.994Z,6.83
2018-05-17T23:18:12.508Z,6.50
2018-05-17T23:20:42.008Z,6.60
2018-05-17T23:23:10.307Z,6.30
2018-05-17T23:25:37.861Z,7.40
2018-05-17T23:28:06.129Z,7.40
2018-05-17T23:30:34.425Z,6.90
2018-05-17T23:33:01.943Z,7.77
2018-05-17T23:35:30.219Z,6.57
2018-05-17T23:37:59.251Z,7.03
2018-05-17T23:40:38.769Z,6.33
2018-05-17T23:43:07.054Z,6.40
2018-05-17T23:45:34.583Z,7.47
2018-05-17T23:48:02.090Z,6.87
2018-05-17T23:50:29.591Z,6.33
2018-05-17T23:52:59.049Z,6.40
2018-05-17T23:55:26.547Z,8.23
2018-05-17T23:57:54.079Z,7.53
